Traverse City, MI (49684)

9:30 AM EST on February 13, 2016 (GMT -0500)
Hills of Westbrook | | Change Station
CLOSE
Current Station
Personal Weather Station
Location: Traverse City, MI
Elevation: 1043 ft
Nearby Weather Stations
Active Advisory: Winter Weather Advisory Active Notice: Public Information Statement

Elev 1043 ft 44.76 °N, 85.69 °W | Updated 18 seconds ago

Snow
Snow
-1.3 °F
Feels Like -1 °F
N
2.9
Wind Variable Wind from NE
Gusts 4.9 mph

Today
High -- | Low -- °F
--% Chance of Precip.
Yesterday
High -- | Low -- °F
Precip. -- in
Pressure 30.45 in
Visibility 1.0 miles
Clouds Overcast 2200 ft
Windchill -1 °F
Dew Point -28 °F
Humidity 26%
Rainfall 0.00 in
Snow Depth Not available.
7:46 AM 6:07 PM
Waxing Crescent, 31% visible
METAR KTVC 131353Z VRB05KT 1SM -SN OVC022 M18/M21 A3040 RMK AO2 SFC VIS 1 1/2 SLP311 P0000 T11781211 $
Pressure 30.45 in
Visibility 1.0 miles
Clouds Overcast 2200 ft
Windchill -1 °F
Dew Point -28 °F
Humidity 26%
Rainfall 0.00 in
Snow Depth Not available.
7:46 AM 6:07 PM
Waxing Crescent, 31% visible
METAR KTVC 131353Z VRB05KT 1SM -SN OVC022 M18/M21 A3040 RMK AO2 SFC VIS 1 1/2 SLP311 P0000 T11781211 $

10-Day Weather Forecast

Almanac

Astronomy

Feb. 13, 2016 Rise Set
Actual Time
Civil Twilight
Nautical Twilight
Astronomical Twilight
Moon
Length of Visible Light
Length of Day
Tomorrow will be .
, % of the Moon is Illuminated

Today's Extremes

State Highs State Lows

Community

WunderPhotos

Upload Photos

1,892,558 photos uploaded!

WunderBlog® & News

Nearby

Air Quality

  Air Quality AQ Index Pollutant
Not available.

Snow Depth

Station Depth Elevation

Earthquake Activity

City Distance Mag. Time & Date
Minimum magnitude displayed is 2.5.

Coastal Water Temperatures

Place Temperature

Stations

Nearby Weather Stations

Station Location Temp. Windchill Dew Point Humidity Wind Precip. Elev Updated Type
                   

Watches & Warnings

Winter Weather Advisory
Issued: 3:53 AM EST Feb. 13, 2016 – National Weather Service

... Winter Weather Advisory remains in effect until noon EST
today...

* lake effect snow showers will continue today. The better
snowfall will be this morning.

* Total new snow accumulations will be from 1 to 4 inches. The
greatest amounts across parts of Leelanau... Antrim... Grand
Traverse and Kalkaska counties.

* Gusty northwest winds will produce areas of blowing and
drifting snow.

* Look for periods of poor visibility and slippery Road
conditions.